Weather History for Edenton, NC

Change the Weather History Date:

Saturday, April 20, 2013

  Actual Average Record
Temperature  
Mean Temperature 56 °F -  
Max Temperature 66 °F 73 °F 92 °F (1963)
Min Temperature 46 °F 49 °F 30 °F (1953)
Degree Days  
Heating Degree Days 8    
Growing Degree Days 6 (Base 50)    
Moisture  
Dew Point 50 °F    
Average Humidity 80    
Maximum Humidity 100    
Minimum Humidity 46    
Precipitation  
Precipitation 0.40 in - - ()
Sea Level Pressure  
Sea Level Pressure 30.06 in    
Wind  
Wind Speed 8 mph (NW)    
Max Wind Speed 16 mph    
Max Gust Speed 25 mph    
Visibility 10 miles    
Events Rain    
Averages and records for this station are not official NWS values.
T = Trace of Precipitation, MM = Missing Value Source: NWS Daily Summary

Daily Weather History Graph

Daily Weather History Graph

Search for Another Location

Airport:

Trip Planner

Search our weather history database for the weather conditions in past years. The results will help you decide how hot, cold, wet, or windy it might be!

Date:

Astronomy

Apr. 20, 2013 Rise Set
Actual Time 6:26 AM EDT 7:44 PM EDT
Civil Twilight 5:59 AM EDT 8:11 PM EDT
Nautical Twilight 5:27 AM EDT 8:43 PM EDT
Astronomical Twilight 4:54 AM EDT 9:16 PM EDT
Moon 2:35 PM EDT 3:04 AM EDT
Length of Visible Light 14h 11m
Length of Day
13h 17m
Waxing Gibbous, 71% of the Moon is Illuminated
Apr 20
Waxing Gibbous
Apr 25
Full
May 2
Last Quarter
May 9
New
May 18
First Quarter

Hourly Weather History & Observations

Time (EDT) Temp. Dew Point Humidity Pressure Visibility Wind Dir Wind Speed Gust Speed Precip Events Conditions
12:15 AM 66.6 °F 65.5 °F 96% 29.85 in 7.0 mi SSW 10.4 mph - 0.04 in Rain Light Rain
12:35 AM 66.6 °F 66.6 °F 100% 29.86 in 10.0 mi South 12.7 mph - 0.07 in Rain Rain
12:55 AM 66.7 °F 66.7 °F 100% 29.86 in 7.0 mi South 12.7 mph - 0.11 in Rain Light Rain
1:15 AM 66.6 °F 66.6 °F 100% 29.86 in 7.0 mi SSW 11.5 mph - 0.05 in Rain Rain
1:35 AM 66.6 °F 66.6 °F 100% 29.86 in 10.0 mi SSW 11.5 mph 18.4 mph 0.08 in Rain Rain
1:55 AM 66.6 °F 66.6 °F 100% 29.86 in 7.0 mi SSW 11.5 mph - 0.10 in Rain Rain
2:15 AM 66.4 °F 66.4 °F 100% 29.86 in 10.0 mi WSW 9.2 mph - 0.05 in Rain Light Rain
2:35 AM 66.6 °F 66.6 °F 100% 29.85 in 10.0 mi WSW 6.9 mph - 0.05 in Rain Rain
2:55 AM 66.2 °F 66.0 °F 99% 29.85 in 7.0 mi SW 9.2 mph - 0.09 in Rain Light Rain
3:15 AM 66.0 °F 66.0 °F 100% 29.84 in 7.0 mi SW 11.5 mph 16.1 mph 0.01 in   Drizzle
3:35 AM 65.8 °F 65.7 °F 99% 29.84 in 10.0 mi SW 9.2 mph - 0.01 in   Overcast
3:55 AM 66.2 °F 66.2 °F 100% 29.86 in 5.0 mi SW 8.1 mph - 0.03 in Rain Light Rain
4:15 AM 66.2 °F 66.2 °F 100% 29.87 in 7.0 mi SW 9.2 mph - 0.02 in Rain Light Rain
4:35 AM 65.7 °F 65.7 °F 100% 29.87 in 7.0 mi West 13.8 mph 20.7 mph 0.05 in Rain Light Rain
4:55 AM 57.9 °F 56.1 °F 94% 29.89 in 10.0 mi NNW 16.1 mph 25.3 mph 0.06 in   Drizzle
5:15 AM 55.0 °F 52.9 °F 92% 29.91 in 10.0 mi NW 13.8 mph 21.9 mph N/A   Light Drizzle
5:35 AM 54.7 °F 52.2 °F 91% 29.92 in 10.0 mi NW 15.0 mph 19.6 mph N/A   Overcast
5:55 AM 54.7 °F 51.3 °F 88% 29.94 in 10.0 mi NW 12.7 mph 19.6 mph N/A   Overcast
6:15 AM 53.6 °F 51.4 °F 92% 29.95 in 10.0 mi NW 9.2 mph 16.1 mph N/A Rain Rain
6:35 AM 53.6 °F 51.4 °F 92% 29.97 in 10.0 mi NW 6.9 mph - N/A   Light Drizzle
6:55 AM 53.6 °F 51.4 °F 92% 29.98 in 10.0 mi NW 9.2 mph - N/A Rain Light Rain
7:15 AM 53.6 °F 50.9 °F 91% 29.98 in 10.0 mi NNW 8.1 mph - N/A Rain Light Rain
7:35 AM 53.8 °F 50.9 °F 90% 29.99 in 10.0 mi NNW 6.9 mph - 0.01 in   Overcast
7:55 AM 53.8 °F 50.9 °F 90% 30.01 in 10.0 mi NNW 9.2 mph - 0.01 in   Mostly Cloudy
8:15 AM 53.8 °F 50.5 °F 89% 30.03 in 10.0 mi NNW 9.2 mph - N/A   Drizzle
8:35 AM 53.8 °F 51.4 °F 92% 30.03 in 10.0 mi NNW 9.2 mph - N/A   Overcast
8:55 AM 54.7 °F 52.7 °F 93% 30.05 in 10.0 mi North 9.2 mph - N/A   Scattered Clouds
9:15 AM 54.5 °F 52.3 °F 92% 30.06 in 10.0 mi North 8.1 mph - N/A   Clear
9:35 AM 54.1 °F 48.6 °F 81% 30.07 in 10.0 mi NNE 10.4 mph - N/A   Scattered Clouds
9:55 AM 54.1 °F 48.0 °F 80% 30.08 in 10.0 mi North 9.2 mph - N/A   Scattered Clouds
10:15 AM 55.4 °F 48.6 °F 78% 30.10 in 10.0 mi North 4.6 mph - N/A   Clear
10:35 AM 55.9 °F 49.3 °F 78% 30.09 in 10.0 mi NNE 5.8 mph - N/A   Scattered Clouds
10:55 AM 56.3 °F 48.7 °F 76% 30.10 in 10.0 mi North 5.8 mph - N/A   Scattered Clouds
11:15 AM 56.7 °F 49.3 °F 76% 30.10 in 10.0 mi North 6.9 mph - N/A   Mostly Cloudy
11:35 AM 56.3 °F 48.2 °F 74% 30.11 in 10.0 mi North 5.8 mph - N/A   Mostly Cloudy
11:55 AM 57.4 °F 48.6 °F 72% 30.11 in 10.0 mi NNW 6.9 mph - N/A   Mostly Cloudy
12:15 PM 56.5 °F 47.7 °F 72% 30.11 in 10.0 mi NNW 8.1 mph - N/A   Mostly Cloudy
12:35 PM 57.6 °F 46.9 °F 68% 30.11 in 10.0 mi North 9.2 mph - N/A   Mostly Cloudy
12:55 PM 56.7 °F 46.4 °F 69% 30.11 in 10.0 mi North 9.2 mph - N/A   Mostly Cloudy
1:15 PM 57.0 °F 45.1 °F 64% 30.12 in 10.0 mi NNE 3.5 mph - N/A   Overcast
1:35 PM 57.9 °F 43.0 °F 58% 30.11 in 10.0 mi North 5.8 mph - N/A   Scattered Clouds
1:55 PM 58.1 °F 41.5 °F 54% 30.12 in 10.0 mi North 8.1 mph - N/A   Clear
2:15 PM 58.6 °F 39.0 °F 48% 30.12 in 10.0 mi North 6.9 mph - N/A   Clear
2:35 PM 59.0 °F 40.5 °F 50% 30.12 in 10.0 mi WNW 5.8 mph - N/A   Clear
2:55 PM 59.0 °F 42.4 °F 54% 30.12 in 10.0 mi NNW 6.9 mph - N/A   Clear
3:15 PM 58.6 °F 40.1 °F 50% 30.12 in 10.0 mi NNW 5.8 mph - N/A   Clear
3:35 PM 58.6 °F 39.7 °F 49% 30.12 in 10.0 mi North 5.8 mph - N/A   Clear
3:55 PM 58.6 °F 37.8 °F 46% 30.12 in 10.0 mi North 5.8 mph - N/A   Clear
4:15 PM 58.6 °F 40.5 °F 51% 30.12 in 10.0 mi North 6.9 mph - N/A   Clear
4:35 PM 58.3 °F 39.7 °F 50% 30.12 in 10.0 mi NNE 3.5 mph - N/A   Clear
4:55 PM 58.3 °F 40.5 °F 52% 30.13 in 10.0 mi NNW 4.6 mph - N/A   Clear
5:15 PM 58.1 °F 41.2 °F 53% 30.14 in 10.0 mi Calm Calm - N/A   Clear
5:35 PM 57.9 °F 41.0 °F 53% 30.15 in 10.0 mi NNW 4.6 mph - N/A   Clear
5:55 PM 57.2 °F 41.7 °F 56% 30.15 in 10.0 mi NNW 4.6 mph - N/A   Clear
6:15 PM 56.8 °F 42.8 °F 59% 30.16 in 10.0 mi Calm Calm - N/A   Clear
6:35 PM 56.3 °F 43.0 °F 61% 30.17 in 10.0 mi NNW 3.5 mph - N/A   Clear
6:55 PM 55.2 °F 44.4 °F 67% 30.17 in 10.0 mi Calm Calm - N/A   Clear
7:15 PM 55.2 °F 44.6 °F 67% 30.18 in 10.0 mi Calm Calm - N/A   Clear
7:35 PM 54.0 °F 46.4 °F 76% 30.19 in 10.0 mi Calm Calm - N/A   Clear
7:55 PM 52.7 °F 46.4 °F 79% 30.19 in 10.0 mi Calm Calm - N/A   Clear
8:15 PM 52.7 °F 46.8 °F 80% 30.22 in 10.0 mi Calm Calm - N/A   Clear
8:35 PM 52.0 °F 47.3 °F 84% 30.22 in 10.0 mi Calm Calm - N/A   Clear
8:55 PM 49.3 °F 46.6 °F 90% 30.24 in 10.0 mi Calm Calm - N/A   Clear
9:15 PM 50.4 °F 47.3 °F 89% 30.25 in 10.0 mi Calm Calm - N/A   Clear
9:35 PM 48.7 °F 46.6 °F 92% 30.25 in 10.0 mi Calm Calm - N/A   Clear
9:55 PM 50.0 °F 47.3 °F 90% 30.26 in 10.0 mi Calm Calm - N/A   Clear
10:15 PM 49.5 °F 47.3 °F 92% 30.27 in 10.0 mi Calm Calm - N/A   Clear
10:55 PM 48.6 °F 46.8 °F 93% 30.28 in 10.0 mi Calm Calm - N/A   Clear
11:15 PM 48.9 °F 46.8 °F 92% 30.28 in 10.0 mi Calm Calm - N/A   Clear
11:35 PM 47.5 °F 45.7 °F 93% 30.28 in 10.0 mi Calm Calm - N/A   Clear
11:55 PM 46.8 °F 45.3 °F 95% 30.27 in 10.0 mi Calm Calm - N/A   Clear